Time;durP1;ratioP1;P1;durP2;ratioP2;P2;SDS_P1;SDS_P2;PMS_P1;PMS_P2;Temp;Humidity;BMP_temperature;BMP_pressure;BME280_temperature;BME280_humidity;BME280_pressure;Samples;Min_cycle;Max_cycle;Signal;HPM_P1;HPM_P2
2023/07/14 00:00:32;;;;;;;0.40;0.40;;;22.60;68.50;;;;;;5046603;28;20033;-82
2023/07/14 00:02:59;;;;;;;0.52;0.52;;;22.50;68.40;;;;;;5015463;28;20034;-82
2023/07/14 00:05:29;;;;;;;0.40;0.40;;;22.50;68.60;;;;;;5037653;28;20025;-81
2023/07/14 00:07:55;;;;;;;0.45;0.45;;;22.60;68.40;;;;;;5059239;28;20127;-82
2023/07/14 00:10:31;;;;;;;2.38;0.50;;;22.60;68.30;;;;;;5072809;28;20120;-81
2023/07/14 00:13:01;;;;;;;0.40;0.40;;;22.60;68.90;;;;;;5034868;28;20579;-82
2023/07/14 00:15:26;;;;;;;0.30;0.30;;;22.50;68.30;;;;;;5017072;28;20136;-82
2023/07/14 00:17:55;;;;;;;0.50;0.50;;;22.50;68.20;;;;;;5031553;28;20120;-82
2023/07/14 00:20:24;;;;;;;0.40;0.40;;;22.60;68.40;;;;;;5014911;28;20255;-81
2023/07/14 00:22:51;;;;;;;0.30;0.30;;;22.50;68.30;;;;;;5037344;28;20045;-82
2023/07/14 00:25:16;;;;;;;0.30;0.30;;;22.60;68.30;;;;;;5072300;28;20167;-82
2023/07/14 00:27:42;;;;;;;0.55;0.55;;;22.50;68.20;;;;;;5050012;28;20143;-82
2023/07/14 00:30:18;;;;;;;0.40;0.40;;;22.50;68.20;;;;;;5050976;28;20506;-82
2023/07/14 00:32:44;;;;;;;0.40;0.40;;;22.50;68.30;;;;;;5061241;28;20265;-82
2023/07/14 00:35:20;;;;;;;0.35;0.35;;;22.50;68.20;;;;;;5043335;28;20022;-82
2023/07/14 00:37:47;;;;;;;0.50;0.50;;;22.50;68.40;;;;;;5052075;28;20032;-83
2023/07/14 00:40:18;;;;;;;0.95;0.38;;;22.50;68.10;;;;;;5037831;28;20052;-83
2023/07/14 00:42:46;;;;;;;0.40;0.40;;;22.50;68.20;;;;;;5050736;28;20541;-82
2023/07/14 00:45:15;;;;;;;0.40;0.40;;;22.50;68.00;;;;;;5057983;28;20041;-83
2023/07/14 00:47:41;;;;;;;0.43;0.43;;;22.50;67.80;;;;;;5054225;28;20036;-82
2023/07/14 00:50:12;;;;;;;0.47;0.47;;;22.50;67.80;;;;;;5021377;28;20069;-82
2023/07/14 00:52:38;;;;;;;0.30;0.30;;;22.50;67.80;;;;;;5042449;28;20123;-82
2023/07/14 00:55:38;;;;;;;0.40;0.40;;;22.50;68.00;;;;;;5049486;28;20064;-82
2023/07/14 00:58:10;;;;;;;0.43;0.43;;;22.50;67.90;;;;;;5017182;28;20116;-83
2023/07/14 01:00:35;;;;;;;0.40;0.40;;;22.50;67.90;;;;;;5034344;28;20051;-82
2023/07/14 01:03:03;;;;;;;0.35;0.35;;;22.50;67.80;;;;;;5041431;28;20064;-82
2023/07/14 01:05:29;;;;;;;0.40;0.40;;;22.50;67.90;;;;;;5002641;28;20036;-81
2023/07/14 01:07:55;;;;;;;0.30;0.30;;;22.50;68.00;;;;;;5017288;28;20411;-82
2023/07/14 01:10:23;;;;;;;0.40;0.40;;;22.50;67.80;;;;;;5037639;28;20106;-82
2023/07/14 01:12:54;;;;;;;0.52;0.32;;;22.40;67.70;;;;;;5041353;28;20511;-82
2023/07/14 01:15:20;;;;;;;0.30;0.30;;;22.50;67.70;;;;;;5020802;28;20120;-82
2023/07/14 01:17:45;;;;;;;0.30;0.30;;;22.50;67.80;;;;;;5066925;28;20144;-81
2023/07/14 01:20:11;;;;;;;0.40;0.40;;;22.50;67.90;;;;;;5047608;28;20410;-82
2023/07/14 01:22:39;;;;;;;0.32;0.32;;;22.50;68.30;;;;;;5068319;28;20067;-82
2023/07/14 01:25:37;;;;;;;0.50;0.50;;;22.50;68.10;;;;;;5038828;28;20692;-82
2023/07/14 01:28:04;;;;;;;0.30;0.30;;;22.50;68.10;;;;;;5031761;28;20052;-82
2023/07/14 01:30:30;;;;;;;0.40;0.40;;;22.50;68.10;;;;;;5055929;28;20048;-80
2023/07/14 01:32:55;;;;;;;0.40;0.40;;;22.50;68.30;;;;;;5031594;28;20049;-82
2023/07/14 01:35:31;;;;;;;0.30;0.30;;;22.50;68.20;;;;;;5033725;28;20051;-82
2023/07/14 01:37:56;;;;;;;0.20;0.20;;;22.50;69.10;;;;;;5017480;28;20423;-82
2023/07/14 01:40:22;;;;;;;0.30;0.30;;;22.50;68.00;;;;;;5053055;28;20037;-82
2023/07/14 01:43:03;;;;;;;0.40;0.40;;;22.50;68.60;;;;;;5033766;28;20049;-82
2023/07/14 01:45:38;;;;;;;0.43;0.40;;;22.50;68.10;;;;;;5031812;28;20037;-82
2023/07/14 01:48:04;;;;;;;0.50;0.50;;;22.50;67.80;;;;;;5048826;28;20052;-82
2023/07/14 01:50:33;;;;;;;0.30;0.30;;;22.50;68.00;;;;;;5045323;28;20045;-82
2023/07/14 01:53:04;;;;;;;0.40;0.40;;;22.50;68.00;;;;;;5054114;28;20041;-83
2023/07/14 01:55:34;;;;;;;0.30;0.30;;;22.50;68.10;;;;;;5041677;28;20051;-82
2023/07/14 01:58:02;;;;;;;0.40;0.40;;;22.50;68.00;;;;;;5042573;28;20076;-82
2023/07/14 02:00:27;;;;;;;0.50;0.50;;;22.50;68.10;;;;;;5049457;28;20048;-82
2023/07/14 02:02:53;;;;;;;0.38;0.38;;;22.40;68.70;;;;;;5019587;28;20384;-83
2023/07/14 02:05:21;;;;;;;0.40;0.40;;;22.40;68.00;;;;;;5029706;28;20052;-83
2023/07/14 02:07:47;;;;;;;0.30;0.30;;;22.50;68.10;;;;;;5031574;28;20076;-83
2023/07/14 02:10:17;;;;;;;0.52;0.32;;;22.50;68.10;;;;;;5054501;28;20518;-82
2023/07/14 02:12:46;;;;;;;0.35;0.35;;;22.50;68.20;;;;;;5063391;28;20613;-82
2023/07/14 02:15:17;;;;;;;0.40;0.40;;;22.50;68.10;;;;;;5050017;28;20087;-82
2023/07/14 02:17:43;;;;;;;0.30;0.30;;;22.50;68.30;;;;;;5061906;28;20047;-83
2023/07/14 02:20:29;;;;;;;0.80;0.60;;;22.50;68.20;;;;;;5023859;28;20049;-83
2023/07/14 02:22:54;;;;;;;0.40;0.40;;;22.50;68.40;;;;;;5052315;28;20077;-83
2023/07/14 02:25:21;;;;;;;0.28;0.28;;;22.40;68.90;;;;;;5034233;28;20123;-82
2023/07/14 02:27:46;;;;;;;0.40;0.40;;;22.40;69.00;;;;;;5046546;28;20037;-82
2023/07/14 02:30:19;;;;;;;0.40;0.40;;;22.40;68.10;;;;;;5045867;28;20396;-83
2023/07/14 02:32:51;;;;;;;0.32;0.32;;;22.40;68.40;;;;;;5050402;28;20048;-83
2023/07/14 02:35:33;;;;;;;0.63;0.63;;;22.40;68.10;;;;;;5018120;28;20041;-83
2023/07/14 02:38:15;;;;;;;0.30;0.30;;;22.40;68.40;;;;;;5026180;28;20545;-83
2023/07/14 02:40:45;;;;;;;0.30;0.30;;;22.40;68.40;;;;;;5035211;28;20030;-83
2023/07/14 02:43:12;;;;;;;0.45;0.38;;;22.40;68.20;;;;;;5019370;28;20029;-83
2023/07/14 02:46:03;;;;;;;0.45;0.45;;;22.40;68.30;;;;;;5030127;28;20036;-82
2023/07/14 02:48:30;;;;;;;0.60;0.60;;;22.40;68.40;;;;;;5045275;28;20227;-82
2023/07/14 02:50:56;;;;;;;0.40;0.40;;;22.40;68.10;;;;;;5056307;28;20052;-82
2023/07/14 02:53:22;;;;;;;0.40;0.40;;;22.40;68.20;;;;;;5048710;28;20041;-83
2023/07/14 02:55:48;;;;;;;0.30;0.30;;;22.40;68.00;;;;;;5033122;28;20503;-83
2023/07/14 02:58:13;;;;;;;0.35;0.35;;;22.40;68.00;;;;;;5072046;28;20032;-83
2023/07/14 03:00:39;;;;;;;0.25;0.25;;;22.40;68.10;;;;;;5024372;28;20380;-82
2023/07/14 03:03:04;;;;;;;0.40;0.40;;;22.40;68.20;;;;;;5034960;28;20042;-83
2023/07/14 03:05:30;;;;;;;0.20;0.20;;;22.40;68.00;;;;;;5036782;28;20029;-81
2023/07/14 03:07:55;;;;;;;0.40;0.40;;;22.40;68.10;;;;;;5032871;28;20037;-83
2023/07/14 03:10:22;;;;;;;0.30;0.30;;;22.40;69.00;;;;;;5020535;28;20068;-82
2023/07/14 03:12:47;;;;;;;0.40;0.40;;;22.40;68.00;;;;;;5042701;28;20033;-82
2023/07/14 03:15:13;;;;;;;0.30;0.30;;;22.40;68.10;;;;;;5064524;28;20438;-83
2023/07/14 03:17:38;;;;;;;0.50;0.50;;;22.40;68.00;;;;;;5067670;28;20182;-82
2023/07/14 03:20:09;;;;;;;0.40;0.40;;;22.40;68.10;;;;;;5068366;28;20052;-82
2023/07/14 03:22:35;;;;;;;0.40;0.40;;;22.40;68.10;;;;;;5039454;28;20314;-82
2023/07/14 03:25:01;;;;;;;0.40;0.40;;;22.40;68.10;;;;;;5069645;28;20037;-83
2023/07/14 03:27:27;;;;;;;0.30;0.30;;;22.40;68.00;;;;;;5049296;28;20275;-83
2023/07/14 03:29:53;;;;;;;0.40;0.40;;;22.40;68.00;;;;;;5056444;28;20433;-82
2023/07/14 03:32:19;;;;;;;0.38;0.38;;;22.40;68.00;;;;;;5050997;28;20052;-83
2023/07/14 03:34:44;;;;;;;0.40;0.40;;;22.40;68.00;;;;;;5043592;28;20074;-83
2023/07/14 03:37:10;;;;;;;0.30;0.30;;;22.40;68.10;;;;;;5033538;28;20040;-82
2023/07/14 03:39:35;;;;;;;0.50;0.50;;;22.40;68.10;;;;;;5033848;28;20045;-82
2023/07/14 03:42:01;;;;;;;0.30;0.30;;;22.40;68.10;;;;;;5038491;28;20105;-83
2023/07/14 03:44:26;;;;;;;0.40;0.40;;;22.40;68.20;;;;;;5054832;28;20526;-83
2023/07/14 03:46:52;;;;;;;0.40;0.40;;;22.40;68.10;;;;;;5051678;28;20166;-82
2023/07/14 03:49:18;;;;;;;0.30;0.30;;;22.40;68.00;;;;;;5039230;28;20035;-83
2023/07/14 03:51:43;;;;;;;0.40;0.40;;;22.40;68.00;;;;;;5035631;28;20044;-82
2023/07/14 03:54:09;;;;;;;0.50;0.50;;;22.40;68.00;;;;;;5036242;28;20459;-83
2023/07/14 03:56:35;;;;;;;0.30;0.30;;;22.40;67.80;;;;;;5036592;28;20037;-82
2023/07/14 03:59:00;;;;;;;0.45;0.45;;;22.40;67.80;;;;;;5039924;28;20033;-82
2023/07/14 04:01:26;;;;;;;0.45;0.45;;;22.40;67.90;;;;;;5021322;28;20040;-83
2023/07/14 04:03:52;;;;;;;0.38;0.30;;;22.40;68.00;;;;;;5015297;28;20021;-82
2023/07/14 04:06:17;;;;;;;0.50;0.50;;;22.40;67.90;;;;;;5030671;28;20415;-83
2023/07/14 04:08:43;;;;;;;0.32;0.32;;;22.40;67.90;;;;;;5042903;28;20399;-82
2023/07/14 04:11:09;;;;;;;0.40;0.40;;;22.40;68.00;;;;;;5030761;28;20046;-82
2023/07/14 04:13:35;;;;;;;0.35;0.35;;;22.40;68.00;;;;;;5045634;28;20049;-82
2023/07/14 04:16:03;;;;;;;0.40;0.40;;;22.40;68.00;;;;;;5031038;28;20045;-83
2023/07/14 04:18:29;;;;;;;0.40;0.40;;;22.40;68.00;;;;;;5013276;28;20029;-83
2023/07/14 04:21:02;;;;;;;0.57;0.57;;;22.40;68.70;;;;;;5035748;28;20454;-82
2023/07/14 04:23:29;;;;;;;0.40;0.40;;;22.40;67.90;;;;;;5034220;28;20094;-84
2023/07/14 04:25:54;;;;;;;0.50;0.50;;;22.40;67.90;;;;;;5051015;28;20037;-83
2023/07/14 04:28:20;;;;;;;0.38;0.38;;;22.40;67.80;;;;;;5038797;28;20104;-83
2023/07/14 04:30:53;;;;;;;0.40;0.40;;;22.40;67.90;;;;;;5032492;28;20118;-83
2023/07/14 04:33:19;;;;;;;0.40;0.40;;;22.30;67.80;;;;;;5030850;28;20167;-83
2023/07/14 04:35:44;;;;;;;0.50;0.50;;;22.40;67.80;;;;;;5010205;28;20087;-82
2023/07/14 04:38:10;;;;;;;0.40;0.40;;;22.40;67.80;;;;;;5032039;28;20038;-83
2023/07/14 04:40:40;;;;;;;0.40;0.40;;;22.30;67.80;;;;;;5056267;28;20506;-81
2023/07/14 04:43:05;;;;;;;0.50;0.50;;;22.40;67.90;;;;;;5055596;28;20044;-82
2023/07/14 04:45:31;;;;;;;0.40;0.40;;;22.40;67.80;;;;;;5058342;28;20057;-82
2023/07/14 04:47:56;;;;;;;0.30;0.30;;;22.30;67.80;;;;;;5028958;28;20048;-82
2023/07/14 04:50:22;;;;;;;0.30;0.30;;;22.40;67.90;;;;;;5044164;28;20399;-83
2023/07/14 04:52:47;;;;;;;0.40;0.40;;;22.30;67.80;;;;;;5055890;28;20053;-82
2023/07/14 04:55:13;;;;;;;0.43;0.43;;;22.30;67.80;;;;;;5070954;28;20079;-83
2023/07/14 04:57:39;;;;;;;0.38;0.38;;;22.40;68.00;;;;;;5050018;28;20070;-82
2023/07/14 05:00:05;;;;;;;0.40;0.40;;;22.30;67.80;;;;;;5043876;28;20056;-82
2023/07/14 05:02:31;;;;;;;0.40;0.40;;;22.30;67.90;;;;;;5037507;28;20037;-82
2023/07/14 05:05:28;;;;;;;0.50;0.50;;;22.30;67.90;;;;;;5044262;28;20049;-83
2023/07/14 05:07:55;;;;;;;0.35;0.35;;;22.40;67.90;;;;;;5032085;28;20431;-83
2023/07/14 05:10:21;;;;;;;0.70;0.52;;;22.30;67.80;;;;;;5045218;28;20456;-82
2023/07/14 05:12:54;;;;;;;0.60;0.50;;;22.30;67.70;;;;;;5002665;28;20041;-82
2023/07/14 05:15:19;;;;;;;0.47;0.47;;;22.30;67.70;;;;;;5033517;28;20045;-82
2023/07/14 05:17:45;;;;;;;0.55;0.40;;;22.40;67.80;;;;;;5025525;28;20305;-82
2023/07/14 05:20:12;;;;;;;0.60;0.60;;;22.30;68.60;;;;;;5032268;28;20410;-82
2023/07/14 05:22:39;;;;;;;0.50;0.50;;;22.30;67.80;;;;;;5056780;28;20048;-81
2023/07/14 05:25:05;;;;;;;0.40;0.40;;;22.30;67.80;;;;;;5057229;28;20582;-83
2023/07/14 05:27:31;;;;;;;0.43;0.43;;;22.30;67.80;;;;;;5054064;28;20123;-83
2023/07/14 05:29:56;;;;;;;0.30;0.30;;;22.30;67.80;;;;;;5068784;28;20210;-83
2023/07/14 05:32:22;;;;;;;0.30;0.30;;;22.30;67.80;;;;;;5041452;28;20180;-83
2023/07/14 05:34:48;;;;;;;0.50;0.40;;;22.30;67.80;;;;;;5026355;28;20214;-82
2023/07/14 05:37:15;;;;;;;0.50;0.50;;;22.40;68.00;;;;;;5051397;28;20045;-83
2023/07/14 05:39:41;;;;;;;0.40;0.40;;;22.30;67.80;;;;;;5046647;28;20685;-82
2023/07/14 05:42:07;;;;;;;0.30;0.30;;;22.30;67.70;;;;;;5017952;28;20124;-83
2023/07/14 05:44:32;;;;;;;0.50;0.50;;;22.30;67.70;;;;;;5019374;28;20049;-83
2023/07/14 05:46:58;;;;;;;0.40;0.40;;;22.30;68.50;;;;;;5042707;28;20175;-82
2023/07/14 05:49:24;;;;;;;0.40;0.40;;;22.30;67.80;;;;;;5057567;28;20537;-83
2023/07/14 05:51:52;;;;;;;0.30;0.30;;;22.30;67.80;;;;;;5038331;28;20058;-82
2023/07/14 05:54:19;;;;;;;0.30;0.30;;;22.30;67.70;;;;;;5019586;28;20094;-82
2023/07/14 05:56:45;;;;;;;0.50;0.50;;;22.30;67.80;;;;;;5036373;28;20063;-82
2023/07/14 05:59:10;;;;;;;0.30;0.30;;;22.30;67.70;;;;;;5042117;28;20057;-83
2023/07/14 06:01:36;;;;;;;0.50;0.50;;;22.30;67.70;;;;;;5048984;28;20048;-83
2023/07/14 06:04:02;;;;;;;0.30;0.30;;;22.30;67.70;;;;;;5050391;28;20123;-83
2023/07/14 06:06:27;;;;;;;0.30;0.30;;;22.40;67.90;;;;;;5034089;28;20037;-83
2023/07/14 06:08:55;;;;;;;0.47;0.47;;;22.30;67.70;;;;;;5039443;28;20124;-83
2023/07/14 06:11:21;;;;;;;0.55;0.40;;;22.30;67.60;;;;;;5050627;28;20038;-83
2023/07/14 06:13:47;;;;;;;0.55;0.30;;;22.30;67.70;;;;;;5057839;28;20072;-82
2023/07/14 06:16:12;;;;;;;0.50;0.50;;;22.40;67.70;;;;;;5052717;28;20110;-83
2023/07/14 06:18:38;;;;;;;1.00;0.50;;;22.40;67.70;;;;;;5037348;28;20529;-83
2023/07/14 06:21:03;;;;;;;0.30;0.30;;;22.30;67.70;;;;;;5025925;28;20042;-82
2023/07/14 06:23:29;;;;;;;0.30;0.30;;;22.40;67.70;;;;;;5045607;28;20172;-83
2023/07/14 06:25:57;;;;;;;0.50;0.50;;;22.40;67.70;;;;;;5051773;28;20135;-83
2023/07/14 06:28:23;;;;;;;0.40;0.30;;;22.30;67.60;;;;;;5073068;28;20051;-83
2023/07/14 06:30:56;;;;;;;0.63;0.45;;;22.30;67.60;;;;;;5034586;28;20056;-83
2023/07/14 06:33:22;;;;;;;0.50;0.50;;;22.30;67.60;;;;;;5052011;28;20052;-83
2023/07/14 06:35:47;;;;;;;0.30;0.30;;;22.40;67.70;;;;;;5050072;28;20048;-82
2023/07/14 06:38:13;;;;;;;0.28;0.28;;;22.40;67.80;;;;;;5037792;28;20038;-83
2023/07/14 06:40:39;;;;;;;0.40;0.40;;;22.30;68.60;;;;;;5013079;28;20045;-83
2023/07/14 06:43:07;;;;;;;0.40;0.40;;;22.30;67.80;;;;;;5015195;28;20042;-82
2023/07/14 06:45:33;;;;;;;0.40;0.40;;;22.40;67.80;;;;;;5033086;28;20091;-83
2023/07/14 06:47:59;;;;;;;0.40;0.40;;;22.40;67.70;;;;;;5031954;28;20041;-83
2023/07/14 06:50:24;;;;;;;0.40;0.40;;;22.40;67.60;;;;;;5015174;28;20041;-83
2023/07/14 06:52:51;;;;;;;0.30;0.30;;;22.30;67.60;;;;;;5029673;28;20026;-82
2023/07/14 06:55:16;;;;;;;0.32;0.32;;;22.40;67.60;;;;;;5034006;28;20098;-83
2023/07/14 06:57:42;;;;;;;0.50;0.50;;;22.30;67.60;;;;;;5038523;28;20033;-83
2023/07/14 07:00:12;;;;;;;0.30;0.30;;;22.30;67.60;;;;;;5016503;28;20037;-83
2023/07/14 07:02:40;;;;;;;0.35;0.35;;;22.40;67.60;;;;;;5021531;28;20033;-83
2023/07/14 07:05:06;;;;;;;0.30;0.30;;;22.40;67.60;;;;;;5014528;28;20041;-83
2023/07/14 07:07:33;;;;;;;0.40;0.40;;;22.40;67.60;;;;;;5033262;28;20096;-83
2023/07/14 07:09:58;;;;;;;0.40;0.40;;;22.40;67.50;;;;;;5033702;28;20052;-83
2023/07/14 07:12:24;;;;;;;0.57;0.50;;;22.40;67.60;;;;;;5046382;28;20040;-83
2023/07/14 07:14:50;;;;;;;0.40;0.40;;;22.40;67.50;;;;;;5027611;28;20053;-82
2023/07/14 07:17:15;;;;;;;0.30;0.30;;;22.40;67.60;;;;;;5031914;28;20509;-83
2023/07/14 07:19:41;;;;;;;0.38;0.38;;;22.40;67.50;;;;;;5034199;28;20044;-83
2023/07/14 07:22:07;;;;;;;0.50;0.50;;;22.40;67.60;;;;;;5037409;28;20049;-83
2023/07/14 07:24:33;;;;;;;0.30;0.30;;;22.30;67.50;;;;;;5032635;28;20052;-83
2023/07/14 07:26:58;;;;;;;0.40;0.40;;;22.40;67.60;;;;;;4995492;28;20042;-83
2023/07/14 07:29:24;;;;;;;0.40;0.40;;;22.40;67.40;;;;;;5033613;28;20400;-83
2023/07/14 07:31:50;;;;;;;0.30;0.30;;;22.40;67.40;;;;;;5031870;28;20419;-82
2023/07/14 07:34:15;;;;;;;0.50;0.50;;;22.40;67.40;;;;;;5039488;28;20044;-83
2023/07/14 07:36:41;;;;;;;0.40;0.40;;;22.40;67.40;;;;;;5031512;28;20065;-84
2023/07/14 07:39:06;;;;;;;0.40;0.40;;;22.40;67.30;;;;;;5029646;28;20041;-83
2023/07/14 07:41:32;;;;;;;0.47;0.47;;;22.40;67.40;;;;;;5035472;28;20026;-83
2023/07/14 07:43:57;;;;;;;0.20;0.20;;;22.40;67.30;;;;;;5032623;28;20041;-83
2023/07/14 07:46:25;;;;;;;0.50;0.50;;;22.40;67.40;;;;;;5034567;28;20048;-83
2023/07/14 07:48:51;;;;;;;0.30;0.30;;;22.40;67.40;;;;;;5028361;28;20069;-82
2023/07/14 07:51:16;;;;;;;0.40;0.40;;;22.40;67.40;;;;;;5028212;28;20279;-83
2023/07/14 07:53:42;;;;;;;0.38;0.38;;;22.40;67.50;;;;;;5033940;28;20096;-83
2023/07/14 07:56:08;;;;;;;0.40;0.40;;;22.40;67.30;;;;;;5014267;28;20112;-83
2023/07/14 07:58:34;;;;;;;0.50;0.40;;;22.40;67.40;;;;;;5038242;28;20045;-83
2023/07/14 08:01:01;;;;;;;0.32;0.32;;;22.40;67.40;;;;;;5053600;28;20048;-83
2023/07/14 08:03:27;;;;;;;0.40;0.40;;;22.40;67.30;;;;;;5035004;28;20045;-84
2023/07/14 08:06:00;;;;;;;0.32;0.32;;;22.40;67.30;;;;;;5033235;28;20115;-83
2023/07/14 08:08:26;;;;;;;0.50;0.50;;;22.40;67.30;;;;;;5034518;28;20148;-84
2023/07/14 08:10:51;;;;;;;1.40;0.50;;;22.50;67.20;;;;;;5039196;28;20720;-83
2023/07/14 08:13:17;;;;;;;0.63;0.40;;;22.40;67.10;;;;;;5041371;28;20452;-83
2023/07/14 08:15:42;;;;;;;0.32;0.32;;;22.50;67.20;;;;;;5031989;28;20562;-83
2023/07/14 08:18:08;;;;;;;0.40;0.40;;;22.50;67.10;;;;;;5029731;28;20042;-83
2023/07/14 08:20:37;;;;;;;0.75;0.35;;;22.50;67.10;;;;;;5031541;28;20461;-83
2023/07/14 08:23:05;;;;;;;0.40;0.40;;;22.50;67.10;;;;;;5020049;28;20459;-83
2023/07/14 08:25:31;;;;;;;0.30;0.30;;;22.50;67.00;;;;;;5038957;28;20053;-84
2023/07/14 08:27:57;;;;;;;0.40;0.40;;;22.50;67.20;;;;;;5023173;28;20040;-84
2023/07/14 08:30:23;;;;;;;0.40;0.40;;;22.50;67.10;;;;;;5034562;28;20049;-84
2023/07/14 08:32:49;;;;;;;0.40;0.40;;;22.50;67.30;;;;;;5023799;28;20033;-83
2023/07/14 08:35:18;;;;;;;0.40;0.40;;;22.50;68.20;;;;;;5030211;28;20094;-84
2023/07/14 08:37:45;;;;;;;0.30;0.30;;;22.50;67.50;;;;;;5033295;28;20042;-84
2023/07/14 08:40:24;;;;;;;0.40;0.40;;;22.50;67.40;;;;;;5035716;28;20048;-84
2023/07/14 08:43:30;;;;;;;0.65;0.65;;;22.50;67.20;;;;;;5031750;28;20028;-83
2023/07/14 08:46:14;;;;;;;0.40;0.40;;;22.50;67.00;;;;;;5000031;28;20459;-84
2023/07/14 08:48:42;;;;;;;0.30;0.30;;;22.60;67.20;;;;;;5019831;28;20038;-84
2023/07/14 08:51:13;;;;;;;0.30;0.30;;;22.60;67.10;;;;;;4991829;28;20145;-85
2023/07/14 08:53:38;;;;;;;0.32;0.32;;;22.60;66.90;;;;;;4994205;28;20050;-84
2023/07/14 08:56:04;;;;;;;0.40;0.40;;;22.60;66.90;;;;;;4986452;28;20586;-84
2023/07/14 08:58:31;;;;;;;0.30;0.30;;;22.60;66.70;;;;;;4994517;28;20478;-84
2023/07/14 09:01:02;;;;;;;0.40;0.40;;;22.60;66.70;;;;;;4977682;28;20042;-83
2023/07/14 09:03:44;;;;;;;0.57;0.57;;;22.60;66.70;;;;;;5007521;28;20045;-84
2023/07/14 09:06:20;;;;;;;0.40;0.40;;;22.60;66.70;;;;;;5003458;28;20058;-84
2023/07/14 09:08:45;;;;;;;0.43;0.43;;;22.60;66.70;;;;;;4989599;28;20501;-84
2023/07/14 09:11:52;;;;;;;0.40;0.40;;;22.60;66.70;;;;;;4991122;28;20058;-84
2023/07/14 09:14:31;;;;;;;0.40;0.40;;;22.60;66.60;;;;;;4993168;28;20051;-84
2023/07/14 09:17:02;;;;;;;0.40;0.40;;;22.60;66.70;;;;;;5009165;28;20125;-84
2023/07/14 09:20:00;;;;;;;0.40;0.40;;;22.60;66.70;;;;;;5011878;28;20042;-84
2023/07/14 09:22:30;;;;;;;0.45;0.45;;;22.70;66.50;;;;;;5009621;28;20036;-84
2023/07/14 09:24:59;;;;;;;0.50;0.50;;;22.60;66.50;;;;;;5052441;28;20049;-84
2023/07/14 09:27:28;;;;;;;0.60;0.60;;;22.60;67.30;;;;;;5027082;28;20120;-85
2023/07/14 09:29:54;;;;;;;0.40;0.40;;;22.70;66.60;;;;;;5024386;28;20046;-84
2023/07/14 09:32:34;;;;;;;0.40;0.40;;;22.70;66.60;;;;;;5037452;28;20052;-84
2023/07/14 09:35:18;;;;;;;0.20;0.20;;;22.70;66.50;;;;;;5065654;28;20038;-84
2023/07/14 09:37:57;;;;;;;0.30;0.30;;;22.70;66.40;;;;;;5068603;28;20033;-84
2023/07/14 09:40:25;;;;;;;0.40;0.40;;;22.70;66.40;;;;;;5035080;28;20044;-84
2023/07/14 09:42:53;;;;;;;0.35;0.35;;;22.70;66.20;;;;;;4997251;28;20065;-84
2023/07/14 09:45:30;;;;;;;0.40;0.40;;;22.70;66.20;;;;;;5053485;28;20032;-84
2023/07/14 09:48:18;;;;;;;1.00;0.40;;;22.70;66.20;;;;;;5045830;28;20041;-84
2023/07/14 09:50:53;;;;;;;0.40;0.40;;;22.70;66.30;;;;;;5036081;28;20057;-85
2023/07/14 09:53:19;;;;;;;0.52;0.40;;;22.80;66.30;;;;;;5053947;28;20159;-84
2023/07/14 09:55:52;;;;;;;0.30;0.30;;;22.70;66.20;;;;;;5019273;28;20097;-85
2023/07/14 09:58:20;;;;;;;0.30;0.30;;;22.80;66.20;;;;;;5022021;28;20106;-85
2023/07/14 10:00:47;;;;;;;0.30;0.30;;;22.80;66.20;;;;;;5038082;28;20502;-85
2023/07/14 10:03:19;;;;;;;0.35;0.35;;;22.80;66.10;;;;;;5038397;28;20044;-85
2023/07/14 10:05:51;;;;;;;0.32;0.32;;;22.80;65.90;;;;;;5038970;28;20448;-85
2023/07/14 10:08:25;;;;;;;0.28;0.28;;;22.80;65.90;;;;;;5055679;28;20036;-85
2023/07/14 10:10:51;;;;;;;0.30;0.30;;;22.80;65.90;;;;;;5036128;28;20525;-84
2023/07/14 10:13:19;;;;;;;0.40;0.32;;;22.80;65.80;;;;;;5054570;28;20044;-84
2023/07/14 10:16:12;;;;;;;0.43;0.43;;;22.80;66.60;;;;;;5049013;28;20041;-84
2023/07/14 10:18:55;;;;;;;0.35;0.35;;;22.90;65.90;;;;;;5020581;28;20049;-84
2023/07/14 10:21:29;;;;;;;0.30;0.30;;;22.90;65.90;;;;;;5021800;28;20170;-84
2023/07/14 10:24:01;;;;;;;0.40;0.40;;;22.90;65.80;;;;;;5049802;28;20033;-82
2023/07/14 10:26:28;;;;;;;0.35;0.35;;;22.80;65.70;;;;;;5057317;28;20037;-85
2023/07/14 10:28:54;;;;;;;0.30;0.30;;;22.80;65.80;;;;;;5047786;28;20044;-85
2023/07/14 10:31:28;;;;;;;0.30;0.30;;;22.90;65.90;;;;;;5036726;28;20040;-85
2023/07/14 10:33:53;;;;;;;;;;;22.80;65.70;;;;;;5037381;28;20098;-84
2023/07/14 10:36:21;;;;;;;0.30;0.30;;;22.90;65.70;;;;;;5050765;28;20640;-84
2023/07/14 10:39:11;;;;;;;0.20;0.20;;;22.90;65.60;;;;;;5033621;28;20043;-85
2023/07/14 10:41:37;;;;;;;0.38;0.38;;;22.90;65.60;;;;;;5006304;28;20052;-85
2023/07/14 10:44:05;;;;;;;0.40;0.30;;;22.90;65.60;;;;;;5031775;28;20052;-84
2023/07/14 10:46:49;;;;;;;0.20;0.20;;;23.00;65.50;;;;;;5036233;28;20044;-85
2023/07/14 10:49:15;;;;;;;0.30;0.30;;;23.00;65.50;;;;;;5051310;28;20037;-85
2023/07/14 10:51:50;;;;;;;0.30;0.30;;;23.00;65.60;;;;;;5038370;28;20052;-85
2023/07/14 10:54:19;;;;;;;0.30;0.30;;;23.00;65.50;;;;;;5047861;28;20123;-85
2023/07/14 10:57:08;;;;;;;0.30;0.30;;;23.00;65.50;;;;;;5028253;28;20044;-85
2023/07/14 10:59:41;;;;;;;0.30;0.30;;;23.00;65.50;;;;;;5035630;28;20040;-84
2023/07/14 11:02:22;;;;;;;0.40;0.30;;;23.00;65.50;;;;;;5051602;28;20103;-85
2023/07/14 11:04:56;;;;;;;0.30;0.30;;;23.00;65.60;;;;;;5036333;28;20498;-85
2023/07/14 11:07:29;;;;;;;0.38;0.38;;;23.00;65.50;;;;;;5044213;28;20560;-85
2023/07/14 11:09:55;;;;;;;0.40;0.40;;;23.00;65.40;;;;;;5043736;28;20054;-85
2023/07/14 11:12:41;;;;;;;0.30;0.30;;;23.00;65.50;;;;;;5035152;28;20037;-85
2023/07/14 11:15:12;;;;;;;0.20;0.20;;;23.00;65.50;;;;;;5033222;28;20128;-84
2023/07/14 11:17:54;;;;;;;0.30;0.30;;;23.00;65.50;;;;;;5035967;28;20033;-84
2023/07/14 11:20:28;;;;;;;0.25;0.25;;;23.00;65.50;;;;;;5032032;28;20049;-84
2023/07/14 11:23:34;;;;;;;0.20;0.20;;;23.00;65.50;;;;;;5032088;28;20084;-85
2023/07/14 11:26:25;;;;;;;0.30;0.30;;;23.00;65.50;;;;;;5050282;28;20056;-83
2023/07/14 11:29:20;;;;;;;0.35;0.35;;;23.00;65.50;;;;;;5029950;28;20049;-85
2023/07/14 11:31:53;;;;;;;0.30;0.30;;;23.10;65.50;;;;;;5019976;28;20061;-84
2023/07/14 11:34:39;;;;;;;0.25;0.25;;;23.10;65.50;;;;;;5045579;28;20392;-84
2023/07/14 11:37:14;;;;;;;0.25;0.25;;;23.00;65.50;;;;;;5048591;28;20045;-83
2023/07/14 11:40:00;;;;;;;0.30;0.30;;;23.00;65.50;;;;;;5049749;28;20103;-84
2023/07/14 11:42:33;;;;;;;0.47;0.47;;;23.00;65.50;;;;;;5022334;28;20102;-85
2023/07/14 11:45:01;;;;;;;0.30;0.30;;;23.10;65.50;;;;;;5048458;28;20056;-85
2023/07/14 11:47:39;;;;;;;0.30;0.30;;;23.00;65.40;;;;;;5056643;28;20045;-85
2023/07/14 11:50:17;;;;;;;0.38;0.38;;;23.10;65.50;;;;;;5069858;28;20510;-84
2023/07/14 11:53:06;;;;;;;0.40;0.40;;;23.00;65.50;;;;;;5043993;28;20071;-85
2023/07/14 11:55:33;;;;;;;0.30;0.30;;;23.00;65.50;;;;;;5031951;28;20049;-85
2023/07/14 11:58:14;;;;;;;0.30;0.30;;;23.10;65.50;;;;;;5033887;28;20045;-85
2023/07/14 12:01:06;;;;;;;0.30;0.30;;;23.10;65.40;;;;;;5030827;28;20060;-85
2023/07/14 12:03:46;;;;;;;0.30;0.30;;;23.00;65.40;;;;;;5026239;28;20053;-85
2023/07/14 12:06:18;;;;;;;0.28;0.28;;;23.10;65.40;;;;;;5039611;28;20033;-85
2023/07/14 12:08:44;;;;;;;0.43;0.43;;;23.10;65.30;;;;;;5034814;28;20052;-85
2023/07/14 12:11:28;;;;;;;0.30;0.30;;;23.10;65.30;;;;;;5032470;28;20057;-85
2023/07/14 12:13:55;;;;;;;0.30;0.30;;;23.10;65.20;;;;;;5036061;28;20048;-84
2023/07/14 12:16:24;;;;;;;0.30;0.30;;;23.10;65.20;;;;;;5040218;28;20033;-85
2023/07/14 12:19:19;;;;;;;0.30;0.30;;;23.10;65.20;;;;;;5002710;28;20041;-85
2023/07/14 12:21:46;;;;;;;0.30;0.30;;;23.10;65.10;;;;;;5028572;28;20132;-85
2023/07/14 12:24:17;;;;;;;0.40;0.38;;;23.10;65.10;;;;;;5030919;28;20041;-84
2023/07/14 12:26:52;;;;;;;0.30;0.30;;;23.10;65.10;;;;;;5019901;28;20052;-85
2023/07/14 12:29:19;;;;;;;0.40;0.40;;;23.10;65.10;;;;;;5050376;28;20037;-84
2023/07/14 12:31:53;;;;;;;0.30;0.30;;;23.10;65.20;;;;;;5033110;28;20064;-84
2023/07/14 12:34:21;;;;;;;0.32;0.32;;;23.10;65.30;;;;;;5017921;28;20053;-84
2023/07/14 12:36:47;;;;;;;0.32;0.32;;;23.10;65.30;;;;;;5032003;28;20520;-84
2023/07/14 12:39:12;;;;;;;0.40;0.40;;;23.10;65.40;;;;;;5021116;28;20045;-85
2023/07/14 12:41:43;;;;;;;0.20;0.20;;;23.10;65.50;;;;;;5034848;28;20433;-85
2023/07/14 12:44:27;;;;;;;0.30;0.30;;;23.20;65.40;;;;;;5016843;28;20455;-84
2023/07/14 12:46:54;;;;;;;0.20;0.20;;;23.20;65.40;;;;;;5035699;28;20240;-85
2023/07/14 12:49:38;;;;;;;0.35;0.30;;;23.20;65.30;;;;;;5016304;28;20053;-84
2023/07/14 12:52:11;;;;;;;0.20;0.20;;;23.10;65.20;;;;;;5039869;28;20029;-83
2023/07/14 12:54:41;;;;;;;0.30;0.30;;;23.20;65.30;;;;;;5030045;28;20124;-84
2023/07/14 12:57:10;;;;;;;0.20;0.20;;;23.20;65.30;;;;;;5016632;28;20043;-84
2023/07/14 12:59:35;;;;;;;0.30;0.30;;;23.10;65.20;;;;;;5005002;28;20076;-84
2023/07/14 13:02:01;;;;;;;0.30;0.30;;;23.10;65.20;;;;;;5037456;28;20042;-84